LOT1MJ EPKK-LFPO
Flight info
| Callsign | LOT1MJ |
|---|---|
| Flight time | 2h 13m |
| Altitude | 34000 |
| Route | ADADO DCT UTEVO DCT ETUDA DCT BEKVI DCT BALTU DCT DONAD DCT OKG L984 KOMIB DCT LOHRE DCT NOSPA DCT BITBU DCT DIK UN857 TOLVU/N0430F350 DCT RAPOR DCT RENSA |
| Aircraft | B38M/M-SDE1FGHILORVWXY/HB1 |
Departure
| Time | 2026-05-05 21:17 |
|---|---|
| Airport | Kraków John Paul II International Airport (EPKK) |
Arrival
| Time | 2026-05-05 23:30 |
|---|---|
| Airport | Paris-Orly Airport (LFPO) |
| Time | Latitude | Longitude | Altitude | Speed | Heading |
|---|---|---|---|---|---|
| 2026-05-05 21:15 | 50.07995 | 19.80279 | 798 ft | 5 kts | 326° |
| 2026-05-05 21:15 | 50.08012 | 19.80213 | 797 ft | 8 kts | 265° |
| 2026-05-05 21:15 | 50.08007 | 19.80165 | 797 ft | 0 kts | 260° |
| 2026-05-05 21:16 | 50.08007 | 19.80164 | 797 ft | 1 kts | 260° |
| 2026-05-05 21:16 | 50.07987 | 19.80022 | 797 ft | 42 kts | 259° |
| 2026-05-05 21:16 | 50.07873 | 19.79197 | 798 ft | 112 kts | 257° |
| 2026-05-05 21:17 | 50.07664 | 19.77716 | 817 ft | 163 kts | 257° |
| 2026-05-05 21:17 | 50.07430 | 19.75965 | 1352 ft | 172 kts | 259° |
| 2026-05-05 21:17 | 50.07239 | 19.74018 | 1891 ft | 189 kts | 261° |
| 2026-05-05 21:17 | 50.07039 | 19.72185 | 2861 ft | 178 kts | 252° |
| 2026-05-05 21:18 | 50.06750 | 19.70363 | 3770 ft | 173 kts | 251° |
| 2026-05-05 21:18 | 50.06475 | 19.68528 | 4493 ft | 176 kts | 251° |
| 2026-05-05 21:18 | 50.06174 | 19.66578 | 4936 ft | 196 kts | 251° |
| 2026-05-05 21:18 | 50.05838 | 19.64404 | 5362 ft | 216 kts | 252° |
| 2026-05-05 21:19 | 50.05536 | 19.62371 | 5759 ft | 234 kts | 252° |
| 2026-05-05 21:19 | 50.05142 | 19.59667 | 6310 ft | 252 kts | 253° |
| 2026-05-05 21:19 | 50.04757 | 19.56976 | 7022 ft | 256 kts | 254° |
| 2026-05-05 21:19 | 50.04368 | 19.54245 | 7755 ft | 262 kts | 254° |
| 2026-05-05 21:20 | 50.03970 | 19.51448 | 8497 ft | 265 kts | 255° |
| 2026-05-05 21:20 | 50.03573 | 19.48647 | 9170 ft | 273 kts | 255° |
| 2026-05-05 21:20 | 50.03163 | 19.45764 | 9928 ft | 276 kts | 255° |
| 2026-05-05 21:20 | 50.02742 | 19.42766 | 10346 ft | 293 kts | 258° |
| 2026-05-05 21:21 | 50.02742 | 19.40028 | 10724 ft | 307 kts | 276° |
| 2026-05-05 21:21 | 50.03068 | 19.36745 | 11266 ft | 317 kts | 275° |
| 2026-05-05 21:21 | 50.03395 | 19.33314 | 11956 ft | 322 kts | 275° |
| 2026-05-05 21:21 | 50.03733 | 19.29847 | 12681 ft | 327 kts | 275° |
| 2026-05-05 21:22 | 50.04081 | 19.26336 | 13436 ft | 331 kts | 275° |
| 2026-05-05 21:22 | 50.04423 | 19.22893 | 14101 ft | 337 kts | 275° |
| 2026-05-05 21:22 | 50.04748 | 19.19625 | 14580 ft | 342 kts | 275° |
| 2026-05-05 21:22 | 50.05108 | 19.15989 | 14742 ft | 340 kts | 275° |
| 2026-05-05 21:23 | 50.05433 | 19.12714 | 14814 ft | 339 kts | 275° |
| 2026-05-05 21:23 | 50.05790 | 19.09087 | 14840 ft | 339 kts | 275° |
| 2026-05-05 21:23 | 50.06146 | 19.05451 | 14823 ft | 339 kts | 275° |
| 2026-05-05 21:23 | 50.06502 | 19.01821 | 14819 ft | 339 kts | 275° |
| 2026-05-05 21:24 | 50.06850 | 18.98256 | 14819 ft | 340 kts | 275° |
| 2026-05-05 21:24 | 50.07203 | 18.94628 | 14823 ft | 339 kts | 275° |
| 2026-05-05 21:24 | 50.07546 | 18.91081 | 14818 ft | 340 kts | 275° |
| 2026-05-05 21:24 | 50.07899 | 18.87437 | 14823 ft | 340 kts | 275° |
| 2026-05-05 21:25 | 50.08248 | 18.83802 | 14825 ft | 340 kts | 275° |
| 2026-05-05 21:25 | 50.08598 | 18.80171 | 14818 ft | 340 kts | 275° |
| 2026-05-05 21:25 | 50.09039 | 18.76606 | 15025 ft | 343 kts | 280° |
| 2026-05-05 21:25 | 50.09588 | 18.72991 | 15822 ft | 343 kts | 280° |
| 2026-05-05 21:26 | 50.10125 | 18.69354 | 16518 ft | 347 kts | 280° |
| 2026-05-05 21:26 | 50.10663 | 18.65667 | 17240 ft | 350 kts | 280° |
| 2026-05-05 21:26 | 50.11198 | 18.61958 | 17958 ft | 353 kts | 280° |
| 2026-05-05 21:26 | 50.11737 | 18.58210 | 18568 ft | 355 kts | 280° |
| 2026-05-05 21:27 | 50.12257 | 18.54576 | 19132 ft | 358 kts | 280° |
| 2026-05-05 21:27 | 50.12802 | 18.50759 | 19708 ft | 361 kts | 281° |
| 2026-05-05 21:27 | 50.13266 | 18.46912 | 20268 ft | 364 kts | 277° |
| 2026-05-05 21:27 | 50.13681 | 18.43009 | 20819 ft | 367 kts | 278° |
| 2026-05-05 21:28 | 50.14102 | 18.39119 | 21368 ft | 370 kts | 278° |
| 2026-05-05 21:28 | 50.14539 | 18.35104 | 21930 ft | 373 kts | 278° |
| 2026-05-05 21:28 | 50.14973 | 18.31106 | 22468 ft | 376 kts | 278° |
| 2026-05-05 21:28 | 50.15410 | 18.27078 | 23003 ft | 379 kts | 278° |
| 2026-05-05 21:29 | 50.15850 | 18.23010 | 23505 ft | 382 kts | 278° |
| 2026-05-05 21:29 | 50.16280 | 18.19020 | 23923 ft | 384 kts | 278° |
| 2026-05-05 21:29 | 50.16721 | 18.14906 | 24366 ft | 386 kts | 278° |
| 2026-05-05 21:29 | 50.17166 | 18.10753 | 24794 ft | 389 kts | 278° |
| 2026-05-05 21:30 | 50.17610 | 18.06589 | 25210 ft | 391 kts | 278° |
| 2026-05-05 21:30 | 50.18051 | 18.02437 | 25625 ft | 394 kts | 278° |
| 2026-05-05 21:30 | 50.18498 | 17.98217 | 26036 ft | 396 kts | 278° |
| 2026-05-05 21:30 | 50.18927 | 17.94157 | 26429 ft | 398 kts | 278° |
| 2026-05-05 21:31 | 50.19376 | 17.89889 | 26827 ft | 400 kts | 278° |
| 2026-05-05 21:31 | 50.19826 | 17.85592 | 27224 ft | 402 kts | 278° |
| 2026-05-05 21:31 | 50.20277 | 17.81274 | 27623 ft | 404 kts | 278° |
| 2026-05-05 21:31 | 50.20730 | 17.76926 | 28001 ft | 407 kts | 277° |
| 2026-05-05 21:32 | 50.20964 | 17.72608 | 28353 ft | 407 kts | 268° |
| 2026-05-05 21:32 | 50.20958 | 17.68176 | 28723 ft | 409 kts | 269° |
| 2026-05-05 21:32 | 50.20973 | 17.63727 | 29088 ft | 412 kts | 269° |
| 2026-05-05 21:32 | 50.20982 | 17.59241 | 29455 ft | 413 kts | 269° |
| 2026-05-05 21:33 | 50.20989 | 17.54750 | 29822 ft | 415 kts | 269° |
| 2026-05-05 21:33 | 50.20917 | 17.51706 | 30001 ft | 416 kts | 261° |
| 2026-05-05 21:33 | 50.19933 | 17.46021 | 30387 ft | 417 kts | 253° |
| 2026-05-05 21:33 | 50.19134 | 17.41651 | 30651 ft | 421 kts | 253° |
| 2026-05-05 21:34 | 50.18595 | 17.38751 | 30911 ft | 421 kts | 253° |
| 2026-05-05 21:34 | 50.17770 | 17.34392 | 31324 ft | 420 kts | 252° |
| 2026-05-05 21:34 | 50.16935 | 17.30033 | 31725 ft | 419 kts | 252° |
| 2026-05-05 21:34 | 50.16096 | 17.25681 | 32116 ft | 418 kts | 252° |
| 2026-05-05 21:35 | 50.15256 | 17.21340 | 32480 ft | 417 kts | 252° |
| 2026-05-05 21:35 | 50.14421 | 17.17028 | 32844 ft | 416 kts | 252° |
| 2026-05-05 21:35 | 50.13581 | 17.12710 | 33195 ft | 416 kts | 252° |
| 2026-05-05 21:35 | 50.12751 | 17.08445 | 33557 ft | 414 kts | 252° |
| 2026-05-05 21:36 | 50.11911 | 17.04143 | 33811 ft | 415 kts | 252° |
| 2026-05-05 21:36 | 50.11071 | 16.99846 | 33829 ft | 415 kts | 251° |
| 2026-05-05 21:36 | 50.09390 | 16.91283 | 33797 ft | 413 kts | 251° |
| 2026-05-05 21:37 | 50.07705 | 16.82739 | 33808 ft | 413 kts | 251° |
| 2026-05-05 21:37 | 50.06013 | 16.74193 | 33806 ft | 413 kts | 251° |
| 2026-05-05 21:38 | 50.04313 | 16.65648 | 33804 ft | 413 kts | 251° |
| 2026-05-05 21:38 | 50.02611 | 16.57121 | 33796 ft | 413 kts | 251° |
| 2026-05-05 21:39 | 50.01518 | 16.48416 | 33785 ft | 414 kts | 271° |
| 2026-05-05 21:39 | 50.01826 | 16.39431 | 33785 ft | 417 kts | 271° |
| 2026-05-05 21:40 | 50.02155 | 16.30418 | 33779 ft | 417 kts | 271° |
| 2026-05-05 21:40 | 50.02496 | 16.21617 | 33767 ft | 417 kts | 271° |
| 2026-05-05 21:41 | 50.02842 | 16.12617 | 33764 ft | 417 kts | 271° |
| 2026-05-05 21:41 | 50.03182 | 16.03606 | 33758 ft | 417 kts | 271° |
| 2026-05-05 21:42 | 50.03514 | 15.94603 | 33749 ft | 417 kts | 270° |
| 2026-05-05 21:42 | 50.03840 | 15.85588 | 33746 ft | 417 kts | 270° |
| 2026-05-05 21:43 | 50.04158 | 15.76587 | 33748 ft | 417 kts | 270° |
| 2026-05-05 21:43 | 50.04469 | 15.67581 | 33749 ft | 416 kts | 270° |
| 2026-05-05 21:44 | 50.04772 | 15.58611 | 33751 ft | 416 kts | 270° |
| 2026-05-05 21:44 | 50.05070 | 15.49607 | 33748 ft | 416 kts | 270° |
| 2026-05-05 21:45 | 50.05359 | 15.40636 | 33745 ft | 415 kts | 270° |
| 2026-05-05 21:45 | 50.05641 | 15.31669 | 33747 ft | 415 kts | 270° |
| 2026-05-05 21:46 | 50.05916 | 15.22714 | 33749 ft | 414 kts | 270° |
| 2026-05-05 21:46 | 50.06184 | 15.13757 | 33746 ft | 414 kts | 269° |
| 2026-05-05 21:47 | 50.06444 | 15.04824 | 33753 ft | 413 kts | 269° |
| 2026-05-05 21:47 | 50.06700 | 14.95880 | 33756 ft | 414 kts | 269° |
| 2026-05-05 21:48 | 50.06945 | 14.86966 | 33776 ft | 413 kts | 269° |
| 2026-05-05 21:48 | 50.07188 | 14.78043 | 33792 ft | 413 kts | 269° |
| 2026-05-05 21:49 | 50.07378 | 14.69120 | 33802 ft | 412 kts | 268° |
| 2026-05-05 21:49 | 50.07524 | 14.60183 | 33803 ft | 413 kts | 268° |
| 2026-05-05 21:50 | 50.07669 | 14.51248 | 33811 ft | 412 kts | 268° |
| 2026-05-05 21:50 | 50.07808 | 14.42309 | 33789 ft | 413 kts | 268° |
| 2026-05-05 21:51 | 50.07939 | 14.33360 | 33821 ft | 414 kts | 268° |
| 2026-05-05 21:51 | 50.08064 | 14.24398 | 33833 ft | 415 kts | 268° |
| 2026-05-05 21:52 | 50.08239 | 14.10918 | 33830 ft | 415 kts | 268° |
| 2026-05-05 21:53 | 50.08348 | 14.02028 | 33823 ft | 415 kts | 267° |
| 2026-05-05 21:53 | 50.08447 | 13.93037 | 33817 ft | 416 kts | 267° |
| 2026-05-05 21:54 | 50.08540 | 13.84330 | 33779 ft | 414 kts | 267° |
| 2026-05-05 21:54 | 50.08626 | 13.75331 | 33805 ft | 417 kts | 267° |
| 2026-05-05 21:55 | 50.08707 | 13.66316 | 33804 ft | 417 kts | 267° |
| 2026-05-05 21:55 | 50.08780 | 13.57290 | 33808 ft | 418 kts | 266° |
| 2026-05-05 21:56 | 50.08847 | 13.48244 | 33802 ft | 418 kts | 266° |
| 2026-05-05 21:56 | 50.08910 | 13.39184 | 33832 ft | 420 kts | 266° |
| 2026-05-05 21:57 | 50.08848 | 13.30121 | 33819 ft | 418 kts | 263° |
| 2026-05-05 21:57 | 50.08612 | 13.21062 | 33807 ft | 419 kts | 264° |
| 2026-05-05 21:58 | 50.08389 | 13.11982 | 33822 ft | 420 kts | 264° |
| 2026-05-05 21:58 | 50.08159 | 13.02822 | 33830 ft | 421 kts | 264° |
| 2026-05-05 21:59 | 50.07939 | 12.93767 | 33828 ft | 421 kts | 264° |
| 2026-05-05 21:59 | 50.07713 | 12.84650 | 33829 ft | 422 kts | 264° |
| 2026-05-05 22:00 | 50.07478 | 12.75517 | 33827 ft | 423 kts | 263° |
| 2026-05-05 22:00 | 50.07236 | 12.66376 | 33815 ft | 423 kts | 263° |
| 2026-05-05 22:01 | 50.06987 | 12.57232 | 33818 ft | 423 kts | 263° |
| 2026-05-05 22:01 | 50.06729 | 12.48028 | 33813 ft | 423 kts | 263° |
| 2026-05-05 22:02 | 50.06579 | 12.38856 | 33800 ft | 426 kts | 268° |
| 2026-05-05 22:02 | 50.06719 | 12.29653 | 33806 ft | 426 kts | 267° |
| 2026-05-05 22:03 | 50.06811 | 12.20446 | 33816 ft | 424 kts | 267° |
| 2026-05-05 22:03 | 50.06897 | 12.11238 | 33802 ft | 426 kts | 267° |
| 2026-05-05 22:04 | 50.06986 | 12.02016 | 33802 ft | 427 kts | 267° |
| 2026-05-05 22:04 | 50.07068 | 11.92776 | 33802 ft | 427 kts | 267° |
| 2026-05-05 22:05 | 50.07142 | 11.83534 | 33805 ft | 427 kts | 267° |
| 2026-05-05 22:05 | 50.07213 | 11.74299 | 33786 ft | 428 kts | 267° |
| 2026-05-05 22:06 | 50.07270 | 11.65060 | 33817 ft | 428 kts | 267° |
| 2026-05-05 22:06 | 50.07327 | 11.55784 | 33804 ft | 429 kts | 267° |
| 2026-05-05 22:07 | 50.07378 | 11.46501 | 33812 ft | 429 kts | 267° |
| 2026-05-05 22:07 | 50.07421 | 11.37213 | 33805 ft | 429 kts | 267° |
| 2026-05-05 22:08 | 50.07457 | 11.27970 | 33808 ft | 430 kts | 267° |
| 2026-05-05 22:08 | 50.07486 | 11.18700 | 33808 ft | 431 kts | 267° |
| 2026-05-05 22:09 | 50.07508 | 11.09274 | 33803 ft | 431 kts | 266° |
| 2026-05-05 22:09 | 50.07521 | 10.99944 | 33801 ft | 432 kts | 267° |
| 2026-05-05 22:10 | 50.07527 | 10.90581 | 33815 ft | 431 kts | 266° |
| 2026-05-05 22:10 | 50.07527 | 10.81275 | 33816 ft | 430 kts | 266° |
| 2026-05-05 22:11 | 50.07517 | 10.71952 | 33814 ft | 432 kts | 266° |
| 2026-05-05 22:11 | 50.07497 | 10.62645 | 33813 ft | 432 kts | 266° |
| 2026-05-05 22:12 | 50.07474 | 10.54824 | 33815 ft | 431 kts | 266° |
| 2026-05-05 22:12 | 50.07453 | 10.48632 | 34016 ft | 432 kts | 266° |
| 2026-05-05 22:12 | 50.07435 | 10.43941 | 34253 ft | 433 kts | 266° |
| 2026-05-05 22:12 | 50.07420 | 10.40772 | 34422 ft | 433 kts | 266° |
| 2026-05-05 22:13 | 50.07399 | 10.36094 | 34675 ft | 434 kts | 266° |
| 2026-05-05 22:13 | 50.07376 | 10.31401 | 34915 ft | 435 kts | 266° |
| 2026-05-05 22:13 | 50.07351 | 10.26686 | 35159 ft | 435 kts | 266° |
| 2026-05-05 22:13 | 50.07326 | 10.21965 | 35413 ft | 435 kts | 266° |
| 2026-05-05 22:14 | 50.07299 | 10.17256 | 35669 ft | 435 kts | 266° |
| 2026-05-05 22:14 | 50.07270 | 10.12560 | 35895 ft | 436 kts | 266° |
| 2026-05-05 22:14 | 50.07240 | 10.07815 | 36126 ft | 436 kts | 266° |
| 2026-05-05 22:14 | 50.07207 | 10.03153 | 36362 ft | 436 kts | 266° |
| 2026-05-05 22:15 | 50.07173 | 9.98432 | 36592 ft | 437 kts | 266° |
| 2026-05-05 22:15 | 50.07137 | 9.93708 | 36806 ft | 437 kts | 266° |
| 2026-05-05 22:15 | 50.07099 | 9.88972 | 37016 ft | 437 kts | 266° |
| 2026-05-05 22:15 | 50.07059 | 9.84240 | 37262 ft | 437 kts | 266° |
| 2026-05-05 22:16 | 50.07018 | 9.79693 | 37488 ft | 436 kts | 266° |
| 2026-05-05 22:16 | 50.06973 | 9.74863 | 37716 ft | 436 kts | 266° |
| 2026-05-05 22:16 | 50.06927 | 9.70144 | 37847 ft | 437 kts | 266° |
| 2026-05-05 22:17 | 50.06830 | 9.60654 | 37827 ft | 434 kts | 265° |
| 2026-05-05 22:17 | 50.06727 | 9.51323 | 37823 ft | 434 kts | 266° |
| 2026-05-05 22:18 | 50.06677 | 9.41923 | 37817 ft | 434 kts | 266° |
| 2026-05-05 22:18 | 50.06623 | 9.32523 | 37823 ft | 435 kts | 266° |
| 2026-05-05 22:19 | 50.06561 | 9.23114 | 37812 ft | 434 kts | 266° |
| 2026-05-05 22:19 | 50.06490 | 9.13707 | 37815 ft | 435 kts | 266° |
| 2026-05-05 22:20 | 50.06414 | 9.04408 | 37815 ft | 435 kts | 266° |
| 2026-05-05 22:20 | 50.06328 | 8.95009 | 37816 ft | 435 kts | 266° |
| 2026-05-05 22:21 | 50.06236 | 8.85597 | 37791 ft | 434 kts | 266° |
| 2026-05-05 22:21 | 50.06137 | 8.76304 | 37800 ft | 435 kts | 266° |
| 2026-05-05 22:22 | 50.06028 | 8.66875 | 37807 ft | 435 kts | 266° |
| 2026-05-05 22:22 | 50.05913 | 8.57470 | 37791 ft | 435 kts | 265° |
| 2026-05-05 22:23 | 50.05789 | 8.47996 | 37807 ft | 435 kts | 265° |
| 2026-05-05 22:23 | 50.05659 | 8.38636 | 37797 ft | 435 kts | 265° |
| 2026-05-05 22:24 | 50.05520 | 8.29228 | 37803 ft | 435 kts | 265° |
| 2026-05-05 22:24 | 50.05377 | 8.19932 | 37804 ft | 435 kts | 265° |
| 2026-05-05 22:25 | 50.05222 | 8.10455 | 37807 ft | 435 kts | 265° |
| 2026-05-05 22:25 | 50.05060 | 8.01035 | 37803 ft | 436 kts | 265° |
| 2026-05-05 22:26 | 50.04894 | 7.91758 | 37816 ft | 435 kts | 265° |
| 2026-05-05 22:26 | 50.04718 | 7.82344 | 37797 ft | 436 kts | 265° |
| 2026-05-05 22:27 | 50.04536 | 7.73059 | 37812 ft | 436 kts | 265° |
| 2026-05-05 22:27 | 50.04345 | 7.63674 | 37799 ft | 436 kts | 265° |
| 2026-05-05 22:28 | 50.04145 | 7.54198 | 37813 ft | 436 kts | 265° |
| 2026-05-05 22:28 | 50.03937 | 7.44768 | 37798 ft | 436 kts | 265° |
| 2026-05-05 22:29 | 50.03722 | 7.35338 | 37799 ft | 437 kts | 265° |
| 2026-05-05 22:29 | 50.03501 | 7.25962 | 37805 ft | 437 kts | 265° |
| 2026-05-05 22:30 | 50.03270 | 7.16478 | 37809 ft | 437 kts | 265° |
| 2026-05-05 22:30 | 50.03031 | 7.07032 | 37801 ft | 437 kts | 265° |
| 2026-05-05 22:31 | 50.02786 | 6.97585 | 37797 ft | 437 kts | 265° |
| 2026-05-05 22:31 | 50.02535 | 6.88125 | 37796 ft | 437 kts | 265° |
| 2026-05-05 22:32 | 50.02277 | 6.78687 | 37794 ft | 437 kts | 265° |
| 2026-05-05 22:32 | 50.01495 | 6.69411 | 37786 ft | 428 kts | 246° |
| 2026-05-05 22:33 | 49.99568 | 6.60628 | 37793 ft | 431 kts | 246° |
| 2026-05-05 22:33 | 49.97151 | 6.52121 | 37785 ft | 430 kts | 244° |
| 2026-05-05 22:34 | 49.94748 | 6.43619 | 37798 ft | 430 kts | 244° |
| 2026-05-05 22:34 | 49.92365 | 6.35113 | 37799 ft | 430 kts | 244° |
| 2026-05-05 22:35 | 49.89992 | 6.26657 | 37805 ft | 430 kts | 244° |
| 2026-05-05 22:35 | 49.87606 | 6.18183 | 37716 ft | 424 kts | 244° |
| 2026-05-05 22:35 | 49.86427 | 6.14046 | 37293 ft | 417 kts | 242° |
| 2026-05-05 22:36 | 49.84886 | 6.10267 | 36665 ft | 413 kts | 231° |
| 2026-05-05 22:36 | 49.83198 | 6.06622 | 36183 ft | 409 kts | 233° |
| 2026-05-05 22:36 | 49.81665 | 6.03254 | 35743 ft | 405 kts | 233° |
| 2026-05-05 22:36 | 49.80013 | 5.99651 | 35246 ft | 403 kts | 233° |
| 2026-05-05 22:37 | 49.78393 | 5.96129 | 34771 ft | 401 kts | 233° |
| 2026-05-05 22:37 | 49.76764 | 5.92594 | 34267 ft | 399 kts | 233° |
| 2026-05-05 22:37 | 49.75150 | 5.89097 | 33779 ft | 397 kts | 233° |
| 2026-05-05 22:37 | 49.73822 | 5.85373 | 33123 ft | 399 kts | 249° |
| 2026-05-05 22:38 | 49.72931 | 5.81391 | 32648 ft | 395 kts | 248° |
| 2026-05-05 22:38 | 49.71976 | 5.77406 | 32244 ft | 390 kts | 248° |
| 2026-05-05 22:38 | 49.71063 | 5.73535 | 31798 ft | 382 kts | 248° |
| 2026-05-05 22:38 | 49.70172 | 5.69730 | 31353 ft | 370 kts | 248° |
| 2026-05-05 22:39 | 49.69300 | 5.65998 | 30956 ft | 363 kts | 248° |
| 2026-05-05 22:39 | 49.68459 | 5.62400 | 30547 ft | 360 kts | 248° |
| 2026-05-05 22:39 | 49.67609 | 5.58766 | 30129 ft | 358 kts | 248° |
| 2026-05-05 22:39 | 49.66767 | 5.55170 | 29696 ft | 355 kts | 248° |
| 2026-05-05 22:40 | 49.65928 | 5.51596 | 29245 ft | 353 kts | 248° |
| 2026-05-05 22:40 | 49.65096 | 5.48056 | 28844 ft | 350 kts | 248° |
| 2026-05-05 22:40 | 49.64271 | 5.44546 | 28454 ft | 346 kts | 248° |
| 2026-05-05 22:40 | 49.63452 | 5.41080 | 28072 ft | 343 kts | 248° |
| 2026-05-05 22:41 | 49.62646 | 5.37632 | 27696 ft | 340 kts | 249° |
| 2026-05-05 22:41 | 49.61908 | 5.34170 | 27260 ft | 339 kts | 250° |
| 2026-05-05 22:41 | 49.61172 | 5.30733 | 26903 ft | 336 kts | 250° |
| 2026-05-05 22:41 | 49.60438 | 5.27330 | 26544 ft | 333 kts | 250° |
| 2026-05-05 22:42 | 49.59709 | 5.23953 | 26194 ft | 331 kts | 250° |
| 2026-05-05 22:42 | 49.59027 | 5.20535 | 25805 ft | 329 kts | 253° |
| 2026-05-05 22:42 | 49.58448 | 5.17184 | 25445 ft | 327 kts | 253° |
| 2026-05-05 22:42 | 49.57847 | 5.13774 | 25120 ft | 324 kts | 252° |
| 2026-05-05 22:43 | 49.57256 | 5.10447 | 24783 ft | 321 kts | 252° |
| 2026-05-05 22:43 | 49.56663 | 5.07134 | 24446 ft | 319 kts | 252° |
| 2026-05-05 22:43 | 49.56083 | 5.03898 | 24116 ft | 317 kts | 252° |
| 2026-05-05 22:43 | 49.55489 | 5.00595 | 23769 ft | 315 kts | 252° |
| 2026-05-05 22:44 | 49.54912 | 4.97393 | 23441 ft | 313 kts | 252° |
| 2026-05-05 22:44 | 49.54330 | 4.94166 | 23066 ft | 313 kts | 252° |
| 2026-05-05 22:44 | 49.53742 | 4.90915 | 22698 ft | 318 kts | 253° |
| 2026-05-05 22:44 | 49.53147 | 4.87615 | 22301 ft | 321 kts | 253° |
| 2026-05-05 22:45 | 49.52553 | 4.84307 | 21942 ft | 319 kts | 253° |
| 2026-05-05 22:45 | 49.51966 | 4.81036 | 21653 ft | 315 kts | 253° |
| 2026-05-05 22:45 | 49.51378 | 4.77765 | 21324 ft | 312 kts | 253° |
| 2026-05-05 22:45 | 49.50800 | 4.74561 | 21004 ft | 308 kts | 253° |
| 2026-05-05 22:46 | 49.50228 | 4.71401 | 20680 ft | 305 kts | 253° |
| 2026-05-05 22:46 | 49.49669 | 4.68312 | 20368 ft | 303 kts | 253° |
| 2026-05-05 22:46 | 49.49099 | 4.65166 | 20037 ft | 300 kts | 253° |
| 2026-05-05 22:46 | 49.48540 | 4.62089 | 19729 ft | 298 kts | 253° |
| 2026-05-05 22:47 | 49.47980 | 4.59017 | 19415 ft | 300 kts | 253° |
| 2026-05-05 22:47 | 49.47413 | 4.55905 | 19089 ft | 305 kts | 253° |
| 2026-05-05 22:47 | 49.46838 | 4.52757 | 18768 ft | 307 kts | 253° |
| 2026-05-05 22:47 | 49.46261 | 4.49600 | 18455 ft | 306 kts | 253° |
| 2026-05-05 22:48 | 49.45684 | 4.46451 | 18138 ft | 305 kts | 253° |
| 2026-05-05 22:48 | 49.45109 | 4.43320 | 17776 ft | 305 kts | 253° |
| 2026-05-05 22:48 | 49.44533 | 4.40187 | 17424 ft | 304 kts | 253° |
| 2026-05-05 22:48 | 49.43959 | 4.37070 | 17095 ft | 302 kts | 253° |
| 2026-05-05 22:49 | 49.43387 | 4.33970 | 16772 ft | 300 kts | 253° |
| 2026-05-05 22:49 | 49.42820 | 4.30905 | 16451 ft | 297 kts | 253° |
| 2026-05-05 22:49 | 49.42258 | 4.27864 | 16141 ft | 295 kts | 253° |
| 2026-05-05 22:49 | 49.41699 | 4.24854 | 15831 ft | 292 kts | 253° |
| 2026-05-05 22:50 | 49.41144 | 4.21865 | 15519 ft | 290 kts | 253° |
| 2026-05-05 22:50 | 49.40594 | 4.18907 | 15213 ft | 287 kts | 253° |
| 2026-05-05 22:50 | 49.40046 | 4.15965 | 14903 ft | 286 kts | 253° |
| 2026-05-05 22:50 | 49.39508 | 4.13081 | 14603 ft | 284 kts | 253° |
| 2026-05-05 22:51 | 49.38959 | 4.10142 | 14307 ft | 284 kts | 253° |
| 2026-05-05 22:51 | 49.38596 | 4.08200 | 14097 ft | 287 kts | 254° |
| 2026-05-05 22:51 | 49.37855 | 4.04256 | 13716 ft | 292 kts | 253° |
| 2026-05-05 22:51 | 49.37471 | 4.02233 | 13549 ft | 292 kts | 254° |
| 2026-05-05 22:52 | 49.36719 | 3.98269 | 13227 ft | 291 kts | 253° |
| 2026-05-05 22:52 | 49.36232 | 3.96314 | 13045 ft | 291 kts | 244° |
| 2026-05-05 22:52 | 49.35306 | 3.93569 | 12813 ft | 290 kts | 243° |
| 2026-05-05 22:52 | 49.34085 | 3.89929 | 12541 ft | 289 kts | 243° |
| 2026-05-05 22:53 | 49.33469 | 3.88085 | 12379 ft | 288 kts | 243° |
| 2026-05-05 22:53 | 49.32555 | 3.85343 | 12167 ft | 288 kts | 243° |
| 2026-05-05 22:53 | 49.31647 | 3.82622 | 11933 ft | 287 kts | 243° |
| 2026-05-05 22:53 | 49.30736 | 3.79894 | 11693 ft | 286 kts | 243° |
| 2026-05-05 22:54 | 49.29833 | 3.77190 | 11486 ft | 285 kts | 243° |
| 2026-05-05 22:54 | 49.28929 | 3.74484 | 11259 ft | 285 kts | 243° |
| 2026-05-05 22:54 | 49.28027 | 3.71788 | 11038 ft | 284 kts | 243° |
| 2026-05-05 22:54 | 49.27131 | 3.69097 | 10853 ft | 283 kts | 245° |
| 2026-05-05 22:55 | 49.26546 | 3.66240 | 10764 ft | 282 kts | 258° |
| 2026-05-05 22:55 | 49.26141 | 3.63291 | 10711 ft | 283 kts | 258° |
| 2026-05-05 22:55 | 49.25728 | 3.60346 | 10649 ft | 284 kts | 258° |
| 2026-05-05 22:55 | 49.25310 | 3.57395 | 10596 ft | 282 kts | 258° |
| 2026-05-05 22:56 | 49.24891 | 3.54462 | 10536 ft | 282 kts | 258° |
| 2026-05-05 22:56 | 49.24470 | 3.51525 | 10481 ft | 283 kts | 257° |
| 2026-05-05 22:56 | 49.24051 | 3.48586 | 10434 ft | 283 kts | 258° |
| 2026-05-05 22:56 | 49.23631 | 3.45648 | 10380 ft | 283 kts | 258° |
| 2026-05-05 22:57 | 49.23209 | 3.42707 | 10321 ft | 283 kts | 258° |
| 2026-05-05 22:57 | 49.22787 | 3.39779 | 10268 ft | 282 kts | 257° |
| 2026-05-05 22:57 | 49.22364 | 3.36840 | 10211 ft | 282 kts | 257° |
| 2026-05-05 22:57 | 49.21940 | 3.33910 | 10154 ft | 282 kts | 257° |
| 2026-05-05 22:58 | 49.21516 | 3.30981 | 10105 ft | 282 kts | 257° |
| 2026-05-05 22:58 | 49.21091 | 3.28055 | 10046 ft | 282 kts | 257° |
| 2026-05-05 22:58 | 49.20666 | 3.25132 | 9989 ft | 281 kts | 257° |
| 2026-05-05 22:58 | 49.20247 | 3.22257 | 9941 ft | 281 kts | 257° |
| 2026-05-05 22:59 | 49.19826 | 3.19377 | 9884 ft | 281 kts | 257° |
| 2026-05-05 22:59 | 49.19400 | 3.16462 | 9828 ft | 281 kts | 257° |
| 2026-05-05 22:59 | 49.18982 | 3.13593 | 9780 ft | 281 kts | 257° |
| 2026-05-05 22:59 | 49.18555 | 3.10684 | 9706 ft | 280 kts | 257° |
| 2026-05-05 23:00 | 49.17705 | 3.04919 | 9599 ft | 279 kts | 257° |
| 2026-05-05 23:00 | 49.17271 | 3.01982 | 9541 ft | 279 kts | 257° |
| 2026-05-05 23:00 | 49.16846 | 2.99090 | 9486 ft | 279 kts | 257° |
| 2026-05-05 23:01 | 49.16418 | 2.96216 | 9440 ft | 279 kts | 257° |
| 2026-05-05 23:01 | 49.16278 | 2.95280 | 9418 ft | 280 kts | 257° |
| 2026-05-05 23:01 | 49.16269 | 2.95217 | 9423 ft | 280 kts | 257° |
| 2026-05-05 23:01 | 49.15879 | 2.92586 | 9369 ft | 279 kts | 257° |
| 2026-05-05 23:02 | 49.15449 | 2.89676 | 9327 ft | 278 kts | 256° |
| 2026-05-05 23:02 | 49.15012 | 2.86756 | 9258 ft | 279 kts | 257° |
| 2026-05-05 23:02 | 49.14579 | 2.83860 | 9204 ft | 279 kts | 257° |
| 2026-05-05 23:02 | 49.14147 | 2.80976 | 9161 ft | 279 kts | 257° |
| 2026-05-05 23:03 | 49.13713 | 2.78088 | 9099 ft | 279 kts | 256° |
| 2026-05-05 23:03 | 49.13281 | 2.75208 | 9042 ft | 278 kts | 257° |
| 2026-05-05 23:03 | 49.12886 | 2.72577 | 9002 ft | 279 kts | 257° |
| 2026-05-05 23:03 | 49.12491 | 2.69956 | 8951 ft | 279 kts | 256° |
| 2026-05-05 23:04 | 49.12059 | 2.67072 | 8888 ft | 278 kts | 256° |
| 2026-05-05 23:04 | 49.11622 | 2.64191 | 8821 ft | 279 kts | 256° |
| 2026-05-05 23:04 | 49.11186 | 2.61308 | 8772 ft | 278 kts | 256° |
| 2026-05-05 23:04 | 49.10815 | 2.58425 | 8725 ft | 278 kts | 265° |
| 2026-05-05 23:05 | 49.10750 | 2.55465 | 8659 ft | 279 kts | 268° |
| 2026-05-05 23:05 | 49.10709 | 2.52578 | 8606 ft | 279 kts | 268° |
| 2026-05-05 23:05 | 49.10661 | 2.49769 | 8549 ft | 278 kts | 268° |
| 2026-05-05 23:05 | 49.10610 | 2.46818 | 8493 ft | 279 kts | 268° |
| 2026-05-05 23:06 | 49.10557 | 2.43862 | 8449 ft | 279 kts | 268° |
| 2026-05-05 23:06 | 49.10501 | 2.40905 | 8386 ft | 278 kts | 268° |
| 2026-05-05 23:06 | 49.10446 | 2.37961 | 8323 ft | 278 kts | 268° |
| 2026-05-05 23:06 | 49.10389 | 2.35012 | 8268 ft | 277 kts | 268° |
| 2026-05-05 23:07 | 49.10333 | 2.32063 | 8202 ft | 278 kts | 268° |
| 2026-05-05 23:07 | 49.10273 | 2.29127 | 8148 ft | 277 kts | 268° |
| 2026-05-05 23:07 | 49.10215 | 2.26217 | 8097 ft | 278 kts | 268° |
| 2026-05-05 23:07 | 49.10156 | 2.23283 | 8042 ft | 277 kts | 268° |
| 2026-05-05 23:08 | 49.10093 | 2.20337 | 7998 ft | 278 kts | 268° |
| 2026-05-05 23:08 | 49.10034 | 2.17391 | 7937 ft | 277 kts | 268° |
| 2026-05-05 23:08 | 49.09973 | 2.14460 | 7886 ft | 278 kts | 268° |
| 2026-05-05 23:08 | 49.09912 | 2.11480 | 7833 ft | 277 kts | 268° |
| 2026-05-05 23:09 | 49.09847 | 2.08577 | 7769 ft | 277 kts | 268° |
| 2026-05-05 23:09 | 49.09781 | 2.05613 | 7723 ft | 276 kts | 268° |
| 2026-05-05 23:09 | 49.09717 | 2.02688 | 7673 ft | 275 kts | 268° |
| 2026-05-05 23:09 | 49.09652 | 1.99773 | 7608 ft | 275 kts | 268° |
| 2026-05-05 23:10 | 49.09586 | 1.96847 | 7559 ft | 276 kts | 268° |
| 2026-05-05 23:10 | 49.09518 | 1.93938 | 7490 ft | 275 kts | 268° |
| 2026-05-05 23:10 | 49.09453 | 1.91101 | 7436 ft | 275 kts | 268° |
| 2026-05-05 23:10 | 49.09385 | 1.88191 | 7377 ft | 275 kts | 268° |
| 2026-05-05 23:11 | 49.09320 | 1.85394 | 7330 ft | 275 kts | 268° |
| 2026-05-05 23:11 | 49.09248 | 1.82457 | 7276 ft | 274 kts | 268° |
| 2026-05-05 23:11 | 49.09180 | 1.79596 | 7213 ft | 269 kts | 268° |
| 2026-05-05 23:11 | 49.09111 | 1.76744 | 7087 ft | 261 kts | 268° |
| 2026-05-05 23:12 | 49.09047 | 1.74031 | 6990 ft | 251 kts | 269° |
| 2026-05-05 23:12 | 49.08801 | 1.71479 | 6917 ft | 238 kts | 246° |
| 2026-05-05 23:12 | 49.07938 | 1.69532 | 6871 ft | 224 kts | 228° |
| 2026-05-05 23:12 | 49.06930 | 1.67772 | 6795 ft | 210 kts | 227° |
| 2026-05-05 23:13 | 49.05970 | 1.66131 | 6552 ft | 206 kts | 227° |
| 2026-05-05 23:13 | 49.05013 | 1.64508 | 6208 ft | 206 kts | 227° |
| 2026-05-05 23:13 | 49.04063 | 1.62913 | 5963 ft | 202 kts | 227° |
| 2026-05-05 23:13 | 49.03111 | 1.61330 | 5849 ft | 203 kts | 226° |
| 2026-05-05 23:14 | 49.02150 | 1.59740 | 5782 ft | 204 kts | 227° |
| 2026-05-05 23:14 | 49.01183 | 1.58145 | 5704 ft | 204 kts | 226° |
| 2026-05-05 23:14 | 49.00222 | 1.56565 | 5622 ft | 204 kts | 226° |
| 2026-05-05 23:14 | 48.99256 | 1.54976 | 5536 ft | 204 kts | 226° |
| 2026-05-05 23:15 | 48.98305 | 1.53418 | 5462 ft | 204 kts | 226° |
| 2026-05-05 23:15 | 48.97271 | 1.51922 | 5342 ft | 202 kts | 208° |
| 2026-05-05 23:15 | 48.95944 | 1.51372 | 5225 ft | 197 kts | 176° |
| 2026-05-05 23:15 | 48.94646 | 1.51917 | 5139 ft | 194 kts | 147° |
| 2026-05-05 23:16 | 48.93568 | 1.53151 | 5111 ft | 194 kts | 138° |
| 2026-05-05 23:16 | 48.92539 | 1.54474 | 5078 ft | 194 kts | 137° |
| 2026-05-05 23:16 | 48.91519 | 1.55821 | 5022 ft | 194 kts | 136° |
| 2026-05-05 23:16 | 48.90510 | 1.57181 | 4973 ft | 194 kts | 135° |
| 2026-05-05 23:17 | 48.89503 | 1.58551 | 4918 ft | 194 kts | 135° |
| 2026-05-05 23:17 | 48.88502 | 1.59925 | 4883 ft | 194 kts | 135° |
| 2026-05-05 23:17 | 48.87503 | 1.61301 | 4828 ft | 194 kts | 135° |
| 2026-05-05 23:17 | 48.86505 | 1.62681 | 4767 ft | 194 kts | 135° |
| 2026-05-05 23:18 | 48.85510 | 1.64059 | 4719 ft | 194 kts | 135° |
| 2026-05-05 23:18 | 48.84514 | 1.65441 | 4654 ft | 194 kts | 135° |
| 2026-05-05 23:18 | 48.83521 | 1.66816 | 4605 ft | 193 kts | 135° |
| 2026-05-05 23:18 | 48.82530 | 1.68191 | 4551 ft | 193 kts | 135° |
| 2026-05-05 23:19 | 48.81540 | 1.69564 | 4496 ft | 193 kts | 135° |
| 2026-05-05 23:19 | 48.80545 | 1.70942 | 4444 ft | 193 kts | 135° |
| 2026-05-05 23:19 | 48.79648 | 1.72184 | 4395 ft | 194 kts | 135° |
| 2026-05-05 23:19 | 48.78688 | 1.73514 | 4350 ft | 194 kts | 135° |
| 2026-05-05 23:20 | 48.77701 | 1.74882 | 4297 ft | 194 kts | 135° |
| 2026-05-05 23:20 | 48.76713 | 1.76248 | 4241 ft | 193 kts | 135° |
| 2026-05-05 23:20 | 48.75718 | 1.77623 | 4185 ft | 194 kts | 135° |
| 2026-05-05 23:20 | 48.74720 | 1.79002 | 4129 ft | 194 kts | 135° |
| 2026-05-05 23:21 | 48.73724 | 1.80378 | 4077 ft | 194 kts | 135° |
| 2026-05-05 23:21 | 48.72731 | 1.81748 | 4034 ft | 194 kts | 135° |
| 2026-05-05 23:21 | 48.71734 | 1.83126 | 4021 ft | 193 kts | 135° |
| 2026-05-05 23:21 | 48.70740 | 1.84499 | 4026 ft | 194 kts | 135° |
| 2026-05-05 23:22 | 48.69740 | 1.85873 | 4018 ft | 194 kts | 135° |
| 2026-05-05 23:22 | 48.68743 | 1.87248 | 4037 ft | 194 kts | 135° |
| 2026-05-05 23:22 | 48.67749 | 1.88621 | 4026 ft | 193 kts | 135° |
| 2026-05-05 23:22 | 48.66754 | 1.89991 | 4040 ft | 193 kts | 135° |
| 2026-05-05 23:23 | 48.65758 | 1.91359 | 4010 ft | 194 kts | 135° |
| 2026-05-05 23:23 | 48.64767 | 1.92719 | 4037 ft | 193 kts | 135° |
| 2026-05-05 23:23 | 48.63765 | 1.94098 | 4027 ft | 197 kts | 135° |
| 2026-05-05 23:23 | 48.62811 | 1.95407 | 4008 ft | 194 kts | 135° |
| 2026-05-05 23:24 | 48.61809 | 1.96778 | 3988 ft | 196 kts | 135° |
| 2026-05-05 23:24 | 48.61055 | 1.98425 | 3917 ft | 187 kts | 102° |
| 2026-05-05 23:24 | 48.61091 | 2.00325 | 3941 ft | 183 kts | 70° |
| 2026-05-05 23:24 | 48.61589 | 2.02106 | 4024 ft | 186 kts | 64° |
| 2026-05-05 23:25 | 48.62150 | 2.03850 | 4044 ft | 185 kts | 62° |
| 2026-05-05 23:25 | 48.62743 | 2.05580 | 4034 ft | 186 kts | 61° |
| 2026-05-05 23:25 | 48.63344 | 2.07284 | 3852 ft | 181 kts | 60° |
| 2026-05-05 23:25 | 48.63930 | 2.08934 | 3633 ft | 175 kts | 60° |
| 2026-05-05 23:26 | 48.64497 | 2.10526 | 3415 ft | 170 kts | 60° |
| 2026-05-05 23:26 | 48.64997 | 2.11940 | 3218 ft | 164 kts | 60° |
| 2026-05-05 23:26 | 48.65527 | 2.13432 | 3009 ft | 160 kts | 59° |
| 2026-05-05 23:26 | 48.66048 | 2.14906 | 2798 ft | 154 kts | 60° |
| 2026-05-05 23:27 | 48.66535 | 2.16279 | 2596 ft | 145 kts | 59° |
| 2026-05-05 23:27 | 48.67009 | 2.17616 | 2431 ft | 142 kts | 59° |
| 2026-05-05 23:27 | 48.67295 | 2.18421 | 2341 ft | 140 kts | 60° |
| 2026-05-05 23:27 | 48.67757 | 2.19724 | 2158 ft | 141 kts | 59° |
| 2026-05-05 23:28 | 48.68367 | 2.21447 | 1877 ft | 140 kts | 59° |
| 2026-05-05 23:28 | 48.68674 | 2.22314 | 1753 ft | 139 kts | 59° |
| 2026-05-05 23:28 | 48.69132 | 2.23608 | 1566 ft | 140 kts | 59° |
| 2026-05-05 23:28 | 48.69565 | 2.24820 | 1373 ft | 140 kts | 59° |
| 2026-05-05 23:29 | 48.70017 | 2.26111 | 1201 ft | 141 kts | 59° |
| 2026-05-05 23:29 | 48.70486 | 2.27429 | 991 ft | 142 kts | 58° |
| 2026-05-05 23:29 | 48.70951 | 2.28744 | 822 ft | 142 kts | 59° |
| 2026-05-05 23:29 | 48.71411 | 2.30066 | 618 ft | 143 kts | 59° |
| 2026-05-05 23:30 | 48.71879 | 2.31375 | 386 ft | 141 kts | 58° |
| 2026-05-05 23:30 | 48.72323 | 2.32601 | 301 ft | 122 kts | 60° |
| 2026-05-05 23:30 | 48.72617 | 2.33441 | 298 ft | 56 kts | 62° |
| 2026-05-05 23:30 | 48.72740 | 2.33801 | 301 ft | 25 kts | 66° |
| 2026-05-05 23:31 | 48.72773 | 2.34048 | 297 ft | 23 kts | 82° |
| 2026-05-05 23:31 | 48.72794 | 2.34279 | 299 ft | 21 kts | 82° |
| 2026-05-05 23:31 | 48.72816 | 2.34489 | 297 ft | 19 kts | 79° |
| 2026-05-05 23:31 | 48.72830 | 2.34674 | 296 ft | 17 kts | 82° |
| 2026-05-05 23:32 | 48.72846 | 2.34833 | 296 ft | 14 kts | 80° |
| 2026-05-05 23:32 | 48.72856 | 2.34931 | 296 ft | 0 kts | 82° |
| 2026-05-05 23:33 | 48.72857 | 2.34934 | 296 ft | 2 kts | 82° |
| 2026-05-05 23:33 | 48.72862 | 2.34990 | 296 ft | 8 kts | 82° |
| 2026-05-05 23:34 | 48.72852 | 2.35104 | 296 ft | 14 kts | 111° |
| 2026-05-05 23:34 | 48.72778 | 2.35223 | 297 ft | 18 kts | 153° |
| 2026-05-05 23:34 | 48.72651 | 2.35278 | 296 ft | 19 kts | 165° |
| 2026-05-05 23:34 | 48.72534 | 2.35326 | 300 ft | 16 kts | 164° |
| 2026-05-05 23:35 | 48.72455 | 2.35360 | 297 ft | 10 kts | 163° |
| 2026-05-05 23:35 | 48.72400 | 2.35391 | 300 ft | 7 kts | 156° |
| 2026-05-05 23:35 | 48.72362 | 2.35428 | 298 ft | 5 kts | 139° |
| 2026-05-05 23:35 | 48.72341 | 2.35462 | 298 ft | 3 kts | 129° |
| 2026-05-05 23:36 | 48.72330 | 2.35486 | 299 ft | 3 kts | 121° |
| 2026-05-05 23:36 | 48.72315 | 2.35536 | 300 ft | 7 kts | 108° |
| 2026-05-05 23:36 | 48.72316 | 2.35598 | 299 ft | 5 kts | 63° |
| 2026-05-05 23:36 | 48.72341 | 2.35627 | 296 ft | 6 kts | 18° |
| 2026-05-05 23:37 | 48.72403 | 2.35625 | 296 ft | 12 kts | 4° |
| 2026-05-05 23:37 | 48.72456 | 2.35674 | 298 ft | 8 kts | 56° |
| 2026-05-05 23:37 | 48.72475 | 2.35748 | 301 ft | 8 kts | 78° |
| 2026-05-05 23:37 | 48.72476 | 2.35847 | 300 ft | 12 kts | 95° |
| 2026-05-05 23:38 | 48.72471 | 2.35995 | 297 ft | 16 kts | 86° |
| 2026-05-05 23:38 | 48.72493 | 2.36156 | 302 ft | 14 kts | 75° |
| 2026-05-05 23:38 | 48.72517 | 2.36290 | 300 ft | 12 kts | 74° |
| 2026-05-05 23:38 | 48.72530 | 2.36353 | 299 ft | 4 kts | 69° |
| 2026-05-05 23:39 | 48.72543 | 2.36372 | 299 ft | 2 kts | 21° |
| 2026-05-05 23:39 | 48.72556 | 2.36374 | 300 ft | 2 kts | 6° |
| 2026-05-05 23:39 | 48.72571 | 2.36374 | 297 ft | 3 kts | 357° |
| 2026-05-05 23:39 | 48.72591 | 2.36371 | 301 ft | 3 kts | 351° |
| 2026-05-05 23:40 | 48.72606 | 2.36367 | 300 ft | 0 kts | 349° |
| 2026-05-05 23:40 | 48.72608 | 2.36366 | 299 ft | 2 kts | 349° |
| 2026-05-05 23:40 | 48.72612 | 2.36365 | 299 ft | 0 kts | 349° |